메인 페이지
METAR-TAF:

METAR-TAF

공항 :

츠바르트노츠 국제공항

예레반, 아르메니아

위도: 40-08-50N, 경도: 044-23-45E, 고도: 865m

현재 날씨관측

예보는 30분 전, 01:30시(UTC)에 발표되었습니다.
무풍
온도 -6°C
습도 79%
기압 1024 hPa
시정: 6000m

METAR: UDYZ 270130Z 00000KT 6000 NSC M06/M09 Q1024 R09/010070 NOSIG

시각: 06:00 (02:00 UTC)

예보

예보는 2 시간 56분 전, 23:04시(UTC)에 발표되었습니다.
예보 대상 시간: 27일 00시부터 27일 24시까지 (UTC)
여러 방향의 바람 4kt
시정: 6000m
일시적
27일 00시부터 27일 06시까지 (UTC)
시정: 3500m
박무

TAF: UDYZ 262304Z 2700/2724 VRB04KT 6000 NSC TEMPO 2700/2706 3500 BR

4,000개 이상의 공항 관측 자료 및 예보 (METAR 및 TAF 보고).

지도상에서 검색 가능한 기상관측소가 노란 점과 빨간 점으로 표시되어 있습니다.

기상관측소 명을 보려면 표시 위로 마우스를 이동하세요.

날씨 관측과 예보를 보려면 클릭하세요.

지도 변경 : 확대하려면 엑스 표시가 있는 녹색 버튼, 축소하려면 빼기 표시가 있는 녹색 버튼, 다음 페이지의 지도를 보려면 녹색 화살표를 클릭하세요.


METAR-TAF: